Baltimore, Maryland
Current Conditions -  °F | °C
As of 11:54 AM on Wednesday 22 Oct 2014 (Local Time) from KBWI Reporting Station
Haze Haze  
Wind Chill: 54°   Ceiling: 2200
Heat Index: 54°   Visibility: 6mi
Dew Point: 51°   Wind: 10mph
Humidity: 90%   Direction: 330°NNW
Pressure: 29.91"   Gusts: NA
Location:  39.29°N, 76.61°W
Report Text: KBWI 221554Z 33009KT 6SM BR SCT014 BKN022 OVC065 12/11 A2991 RMK AO2 RAE30 SLP129 P0001 T01220106
Loading
Personal Weather Stations






























Interactive Weather Map New forecast layout! Learn more

10-Day Weather Forecast

Advertisements
Track Severe Weather on mobile